Terminal Aerodrome Forecast
Issued by NWS Sioux Falls, SD

Home | Current Version | Previous Version | Text Only | Print | Product List | Glossary On
Versions: 1 2 3 4 5 6 7 8 9 10 11 12 13
000
FTUS43 KFSD 172320
TAFFSD
TAF
KFSD 172320Z 1800/1824 34009KT P6SM BKN070 OVC100
     FM180500 33012KT P6SM OVC050
     FM181100 33011KT P6SM SCT120
     FM181700 32014G24KT P6SM SCT035=

USA.gov is the U.S. government's official web portal to all federal, state and local government web resources and services.